• Join FlightAware (Why Join?)
  • Login
  • US Flag 
01:59AM EDT


 

Airport Tracker/Info


-or-


 

Live Flight TrackerFlight Track Log ✈ AMX203 ✈ 05-May-2013 ✈ MMTC / TRC - MMMX / MEX

Flight Track Log - Related Links

Times and Time Zones

All times are in EDT time to prevent confusion due to time zone crossing. See the AMX203 flight status page for this flight to view local times or setup timezone preferences in your user account.

Time Position Orientation Groundspeed Altitude Reporting Facility
EDT Latitude Longitude Course Direction KTS MPH feet Rate Location/Type
08:12PM 19.7448 -99.2799 146° Southeast  Level Estimated
08:13PM 19.7407 -99.2771 148° Southeast  Level Estimated
08:14PM 19.7367 -99.2744 148° Southeast  Level Estimated
08:15PM 19.7326 -99.2716 148° Southeast  Level Estimated
08:16PM 19.7285 -99.2689 148° Southeast  Level Estimated
08:17PM 19.7244 -99.2661 148° Southeast  Level Estimated
08:18PM 19.7204 -99.2634 148° Southeast  Level Estimated
08:19PM 19.7163 -99.2606 148° Southeast  Level Estimated
08:20PM 19.7122 -99.2579 148° Southeast  Level Estimated
08:21PM 19.7082 -99.2551 148° Southeast  Level Estimated
08:22PM 19.7041 -99.2524 148° Southeast  Level Estimated
08:23PM 19.7000 -99.2496 148° Southeast  Level Estimated
08:24PM 19.6959 -99.2469 148° Southeast  Level Estimated
08:25PM 19.6919 -99.2441 148° Southeast  Level Estimated
08:26PM 19.6878 -99.2414 148° Southeast  Level Estimated
08:27PM 19.6837 -99.2386 148° Southeast  Level Estimated
08:28PM 19.6797 -99.2359 148° Southeast  Level Estimated
08:29PM 19.6756 -99.2331 148° Southeast  Level Estimated
08:30PM 19.6715 -99.2304 148° Southeast  Level Estimated
08:31PM 19.6675 -99.2277 148° Southeast  Level Estimated
08:32PM 19.6634 -99.2249 148° Southeast  Level Estimated
08:33PM 19.6593 -99.2222 148° Southeast  Level Estimated
08:34PM 19.6553 -99.2195 148° Southeast  Level Estimated
08:35PM 19.6512 -99.2167 148° Southeast  Level Estimated
08:36PM 19.6471 -99.2140 148° Southeast  Level Estimated
08:37PM 19.6430 -99.2112 148° Southeast  Level Estimated
08:38PM 19.6390 -99.2085 148° Southeast  Level Estimated
08:39PM 19.6349 -99.2057 148° Southeast  Level Estimated
08:40PM 19.6308 -99.2030 148° Southeast  Level Estimated
08:41PM 19.6268 -99.2003 148° Southeast  Level Estimated
08:42PM 19.6227 -99.1975 148° Southeast  Level Estimated
08:43PM 19.6186 -99.1948 148° Southeast  Level Estimated
08:44PM 19.6145 -99.1920 148° Southeast  Level Estimated
08:45PM 19.6105 -99.1893 148° Southeast  Level Estimated
08:46PM 19.6064 -99.1866 148° Southeast  Level Estimated
08:47PM 19.6023 -99.1838 148° Southeast  Level Estimated
08:48PM 19.5983 -99.1811 148° Southeast  Level Estimated
08:49PM 19.5942 -99.1784 148° Southeast  Level Estimated
08:50PM 19.5901 -99.1756 148° Southeast  Level Estimated
08:51PM 19.5861 -99.1729 148° Southeast  Level Estimated
08:52PM 19.5820 -99.1701 148° Southeast  Level Estimated
08:53PM 19.5779 -99.1674 148° Southeast  Level Estimated
08:54PM 19.5739 -99.1646 148° Southeast  Level Estimated
08:55PM 19.5698 -99.1619 148° Southeast  Level Estimated
08:56PM 19.5657 -99.1592 148° Southeast  Level Estimated
08:57PM 19.5616 -99.1564 148° Southeast  Level Estimated
08:58PM 19.5576 -99.1537 148° Southeast  Level Estimated
08:59PM 19.5535 -99.1509 148° Southeast  Level Estimated
09:00PM 19.5494 -99.1482 148° Southeast  Level Estimated
09:01PM 19.5454 -99.1455 148° Southeast  Level Estimated
09:02PM 19.5413 -99.1427 148° Southeast  Level Estimated
09:03PM 19.5372 -99.1400 148° Southeast  Level Estimated
09:04PM 19.5331 -99.1373 148° Southeast  Level Estimated
09:05PM 19.5291 -99.1345 148° Southeast  Level Estimated
09:06PM 19.5250 -99.1318 148° Southeast  Level Estimated
09:07PM 19.5209 -99.1290 148° Southeast  Level Estimated
09:08PM 19.5169 -99.1263 148° Southeast  Level Estimated
09:09PM 19.5128 -99.1236 148° Southeast  Level Estimated
09:10PM 19.5087 -99.1208 148° Southeast  Level Estimated
09:11PM 19.5047 -99.1181 148° Southeast  Level Estimated
09:12PM 19.5006 -99.1153 148° Southeast  Level Estimated
09:13PM 19.4965 -99.1126 148° Southeast  Level Estimated
09:14PM 19.4925 -99.1098 148° Southeast  Level Estimated
09:15PM 19.4884 -99.1071 148° Southeast  Level Estimated
09:16PM 19.4843 -99.1044 148° Southeast  Level Estimated
09:17PM 19.4802 -99.1016 148° Southeast  Level Estimated
09:18PM 19.4762 -99.0989 148° Southeast  Level Estimated
09:19PM 19.4721 -99.0962 148° Southeast  Level Estimated
09:20PM 19.4680 -99.0934 148° Southeast  Level Estimated
09:21PM 19.4640 -99.0907 148° Southeast  Level Estimated
09:22PM 19.4599 -99.0879 148° Southeast  Level Estimated
09:23PM 19.4558 -99.0852 148° Southeast  Level Estimated
09:24PM 19.4517 -99.0825 148° Southeast  Level Estimated
09:25PM 19.4477 -99.0797 148° Southeast  Level Estimated
09:26PM 19.4436 -99.0770 148° Southeast  Level Estimated
09:27PM 19.4395 -99.0742 148° Southeast  Level Estimated
09:28PM 19.4363 -99.0721 148° Southeast  Level Estimated
09:29PM 19.4363 -99.0721 43° Northeast  Level Estimated
09:30PM 19.4363 -99.0721 43° Northeast  Level Estimated
09:31PM 19.4363 -99.0721 43° Northeast  Level Estimated
09:32PM 19.4363 -99.0721 43° Northeast  Level Estimated
09:33PM 19.4363 -99.0721 43° Northeast  Level Estimated
09:34PM 19.4363 -99.0721 43° Northeast  Level Estimated
09:35PM 19.4363 -99.0721 43° Northeast  Level Estimated
09:36PM 19.4363 -99.0721 43° Northeast  Level Estimated
09:37PM 19.4363 -99.0721 43° Northeast  Level Estimated
09:38PM 19.4363 -99.0721 43° Northeast  Level Estimated
09:39PM 19.4363 -99.0721 43° Northeast  Level Estimated
09:40PM 19.4363 -99.0721 43° Northeast  Level Estimated
09:41PM 19.4363 -99.0721 43° Northeast  Level Estimated
09:42PM 19.4363 -99.0721 43° Northeast  Level Estimated
09:43PM 19.4363 -99.0721 43° Northeast  Level Estimated
09:44PM 19.4363 -99.0721 43° Northeast  Level Estimated
09:45PM 19.4363 -99.0721 43° Northeast  Level Estimated